createdAt,value
2018-06-07T00:00:42.241Z,0.00
2018-06-07T00:01:42.265Z,0.00
2018-06-07T00:02:42.287Z,0.00
2018-06-07T00:03:42.309Z,0.00
2018-06-07T00:04:42.334Z,0.00
2018-06-07T00:05:42.355Z,0.00
2018-06-07T00:06:42.379Z,0.00
2018-06-07T00:07:42.402Z,0.00
2018-06-07T00:08:42.424Z,0.00
2018-06-07T00:09:42.449Z,0.00
2018-06-07T00:10:42.469Z,0.00
2018-06-07T00:11:42.492Z,0.00
2018-06-07T00:12:42.514Z,0.00
2018-06-07T00:13:42.537Z,0.00
2018-06-07T00:14:42.560Z,0.00
2018-06-07T00:15:42.582Z,0.00
2018-06-07T00:16:42.605Z,0.00
2018-06-07T00:17:42.626Z,0.00
2018-06-07T00:18:42.653Z,0.00
2018-06-07T00:19:42.673Z,0.00
2018-06-07T00:20:42.694Z,0.00
2018-06-07T00:21:42.718Z,0.00
2018-06-07T00:22:42.742Z,0.00
2018-06-07T00:23:42.764Z,0.00
2018-06-07T00:24:42.785Z,0.00
2018-06-07T00:25:42.808Z,0.00
2018-06-07T00:26:42.831Z,0.00
2018-06-07T00:27:42.854Z,0.00
2018-06-07T00:28:42.875Z,0.00
2018-06-07T00:29:42.898Z,0.00
2018-06-07T00:30:42.922Z,0.00
2018-06-07T00:31:42.945Z,0.00
2018-06-07T00:32:42.967Z,0.00
2018-06-07T00:33:42.988Z,0.00
2018-06-07T00:34:43.012Z,0.00
2018-06-07T00:35:43.035Z,0.00
2018-06-07T00:36:43.060Z,0.00
2018-06-07T00:37:43.078Z,0.00
2018-06-07T00:38:43.105Z,0.00
2018-06-07T00:39:43.124Z,0.00
2018-06-07T00:40:43.146Z,0.00
2018-06-07T00:41:43.170Z,0.00
2018-06-07T00:42:43.193Z,0.00
2018-06-07T00:43:43.215Z,0.00
2018-06-07T00:44:43.237Z,0.00
2018-06-07T00:45:43.260Z,0.00
2018-06-07T00:46:43.285Z,0.00
2018-06-07T00:47:43.305Z,0.00
2018-06-07T00:48:43.326Z,0.00
2018-06-07T00:49:43.349Z,0.00
2018-06-07T00:50:43.373Z,0.00
2018-06-07T00:51:43.395Z,0.00
2018-06-07T00:52:43.416Z,0.00
2018-06-07T00:53:43.440Z,0.00
2018-06-07T00:54:43.463Z,0.00
2018-06-07T00:55:43.485Z,0.00
2018-06-07T00:56:43.507Z,0.00
2018-06-07T00:57:43.530Z,0.00
2018-06-07T00:58:43.556Z,0.00
2018-06-07T00:59:43.574Z,0.00
2018-06-07T01:00:43.597Z,0.00
2018-06-07T01:01:43.618Z,0.00
2018-06-07T01:02:43.641Z,0.00
2018-06-07T01:03:43.665Z,0.00
2018-06-07T01:04:43.686Z,0.00
2018-06-07T01:05:43.708Z,0.00
2018-06-07T01:06:43.736Z,0.00
2018-06-07T01:07:43.753Z,0.00
2018-06-07T01:08:43.776Z,0.00
2018-06-07T01:09:43.798Z,0.00
2018-06-07T01:10:43.820Z,0.00
2018-06-07T01:11:43.844Z,0.00
2018-06-07T01:12:43.864Z,0.00
2018-06-07T01:13:43.888Z,0.00
2018-06-07T01:14:43.912Z,0.00
2018-06-07T01:15:43.935Z,0.00
2018-06-07T01:16:43.956Z,0.00
2018-06-07T01:17:43.978Z,0.00
2018-06-07T01:18:44.001Z,0.00
2018-06-07T01:19:44.022Z,0.00
2018-06-07T01:20:44.043Z,0.00
2018-06-07T01:21:44.067Z,0.00
2018-06-07T01:22:44.089Z,0.00
2018-06-07T01:23:44.113Z,0.00
2018-06-07T01:24:44.133Z,0.00
2018-06-07T01:25:44.156Z,0.00
2018-06-07T01:26:44.181Z,0.00
2018-06-07T01:27:44.201Z,0.00
2018-06-07T01:28:44.224Z,0.00
2018-06-07T01:29:44.246Z,0.00
2018-06-07T01:30:44.267Z,0.00
2018-06-07T01:31:44.291Z,0.00
2018-06-07T01:32:44.315Z,0.00
2018-06-07T01:33:44.334Z,0.00
2018-06-07T01:34:44.358Z,0.00
2018-06-07T01:35:44.380Z,0.00
2018-06-07T01:36:44.401Z,0.00
2018-06-07T01:37:44.431Z,0.00
2018-06-07T01:38:44.445Z,0.00
2018-06-07T01:39:44.469Z,0.00
2018-06-07T01:40:44.490Z,0.00
2018-06-07T01:41:44.514Z,0.00
2018-06-07T01:42:44.535Z,0.00
2018-06-07T01:43:44.657Z,0.00
2018-06-07T01:44:44.583Z,0.00
2018-06-07T01:45:44.601Z,0.00
2018-06-07T01:46:44.625Z,0.00
2018-06-07T01:47:44.647Z,0.00
2018-06-07T01:48:44.668Z,0.00
2018-06-07T01:49:44.691Z,0.00
2018-06-07T01:50:44.714Z,0.00
2018-06-07T01:51:44.736Z,0.00
2018-06-07T01:52:44.762Z,0.00
2018-06-07T01:53:44.780Z,0.00
2018-06-07T01:54:44.802Z,0.00
2018-06-07T01:55:44.824Z,0.00
2018-06-07T01:56:44.846Z,0.00
2018-06-07T01:57:44.869Z,0.00
2018-06-07T01:58:44.892Z,0.00
2018-06-07T01:59:44.914Z,0.00
2018-06-07T02:00:44.935Z,0.00
2018-06-07T02:01:44.960Z,0.00
2018-06-07T02:02:44.981Z,0.00
2018-06-07T02:03:45.008Z,0.00
2018-06-07T02:04:45.026Z,0.00
2018-06-07T02:05:45.049Z,0.00
2018-06-07T02:06:45.071Z,0.00
2018-06-07T02:07:45.092Z,0.00
2018-06-07T02:08:45.114Z,0.00
2018-06-07T02:09:45.141Z,0.00
2018-06-07T02:10:45.161Z,0.00
2018-06-07T02:11:45.182Z,0.00
2018-06-07T02:12:45.207Z,0.00
2018-06-07T02:13:45.226Z,0.00
2018-06-07T02:14:45.248Z,0.00
2018-06-07T02:15:45.270Z,0.00
2018-06-07T02:16:45.293Z,0.00
2018-06-07T02:17:45.314Z,0.00
2018-06-07T02:18:45.337Z,0.00
2018-06-07T02:19:45.360Z,0.00
2018-06-07T02:20:45.380Z,0.00
2018-06-07T02:21:45.403Z,0.00
2018-06-07T02:22:45.427Z,0.00
2018-06-07T02:23:45.449Z,0.00
2018-06-07T02:24:45.471Z,0.00
2018-06-07T02:25:45.494Z,0.00
2018-06-07T02:26:45.515Z,4.00
2018-06-07T02:27:45.538Z,4.00
2018-06-07T02:28:45.560Z,4.00
2018-06-07T02:29:45.582Z,0.00
2018-06-07T02:30:45.604Z,0.00
2018-06-07T02:31:45.628Z,4.00
2018-06-07T02:32:45.649Z,4.00
2018-06-07T02:33:45.671Z,4.00
2018-06-07T02:34:45.694Z,4.00
2018-06-07T02:35:45.715Z,4.00
2018-06-07T02:36:45.743Z,8.00
2018-06-07T02:37:45.759Z,4.00
2018-06-07T02:38:45.784Z,8.00
2018-06-07T02:39:45.806Z,4.00
2018-06-07T02:40:45.828Z,8.00
2018-06-07T02:41:45.849Z,8.00
2018-06-07T02:42:45.872Z,8.00
2018-06-07T02:43:45.893Z,12.00
2018-06-07T02:44:45.914Z,12.00
2018-06-07T02:45:45.936Z,12.00
2018-06-07T02:46:45.960Z,16.00
2018-06-07T02:47:45.985Z,20.00
2018-06-07T02:48:46.004Z,20.00
2018-06-07T02:49:46.027Z,20.00
2018-06-07T02:50:46.048Z,24.00
2018-06-07T02:51:46.070Z,28.00
2018-06-07T02:52:46.093Z,32.00
2018-06-07T02:53:46.163Z,36.00
2018-06-07T02:54:46.139Z,40.00
2018-06-07T02:55:46.159Z,44.00
2018-06-07T02:56:46.180Z,52.00
2018-06-07T02:57:46.202Z,56.00
2018-06-07T02:58:46.225Z,64.00
2018-06-07T02:59:46.248Z,68.00
2018-06-07T03:00:46.268Z,76.00
2018-06-07T03:01:46.291Z,80.00
2018-06-07T03:02:46.313Z,88.00
2018-06-07T03:03:46.338Z,100.00
2018-06-07T03:04:46.358Z,108.00
2018-06-07T03:05:46.381Z,116.00
2018-06-07T03:06:46.402Z,128.00
2018-06-07T03:07:46.424Z,136.00
2018-06-07T03:08:46.446Z,148.00
2018-06-07T03:09:46.467Z,160.00
2018-06-07T03:10:46.490Z,172.00
2018-06-07T03:11:46.513Z,188.00
2018-06-07T03:12:46.536Z,200.00
2018-06-07T03:13:46.557Z,212.00
2018-06-07T03:14:46.579Z,228.00
2018-06-07T03:15:46.600Z,244.00
2018-06-07T03:16:46.623Z,256.00
2018-06-07T03:17:46.645Z,276.00
2018-06-07T03:18:46.670Z,292.00
2018-06-07T03:19:46.689Z,308.00
2018-06-07T03:20:46.710Z,328.00
2018-06-07T03:21:46.733Z,348.00
2018-06-07T03:22:46.755Z,372.00
2018-06-07T03:23:46.776Z,392.00
2018-06-07T03:24:46.798Z,416.00
2018-06-07T03:25:46.821Z,436.00
2018-06-07T03:26:46.844Z,460.00
2018-06-07T03:27:46.867Z,480.00
2018-06-07T03:28:46.887Z,504.00
2018-06-07T03:29:46.909Z,524.00
2018-06-07T03:30:46.931Z,544.00
2018-06-07T03:31:46.954Z,568.00
2018-06-07T03:32:46.976Z,592.00
2018-06-07T03:33:46.998Z,616.00
2018-06-07T03:34:47.020Z,640.00
2018-06-07T03:35:47.041Z,664.00
2018-06-07T03:36:47.063Z,688.00
2018-06-07T03:37:47.086Z,712.00
2018-06-07T03:38:47.108Z,732.00
2018-06-07T03:39:47.130Z,756.00
2018-06-07T03:40:47.152Z,784.00
2018-06-07T03:41:47.173Z,812.00
2018-06-07T03:42:47.200Z,840.00
2018-06-07T03:43:47.219Z,868.00
2018-06-07T03:44:47.240Z,900.00
2018-06-07T03:45:47.261Z,932.00
2018-06-07T03:46:47.285Z,960.00
2018-06-07T03:47:47.316Z,992.00
2018-06-07T03:48:47.328Z,1024.00
2018-06-07T03:49:47.350Z,1052.00
2018-06-07T03:50:47.372Z,1084.00
2018-06-07T03:51:47.394Z,1112.00
2018-06-07T03:52:47.472Z,1144.00
2018-06-07T03:53:47.438Z,1176.00
2018-06-07T03:54:47.460Z,1208.00
2018-06-07T03:55:47.481Z,1244.00
2018-06-07T03:56:47.504Z,1280.00
2018-06-07T03:57:47.525Z,1316.00
2018-06-07T03:58:47.548Z,1352.00
2018-06-07T03:59:47.572Z,1388.00
2018-06-07T04:00:47.602Z,1424.00
2018-06-07T04:01:47.614Z,1456.00
2018-06-07T04:02:47.635Z,1496.00
2018-06-07T04:03:47.657Z,1532.00
2018-06-07T04:04:47.679Z,1564.00
2018-06-07T04:05:47.702Z,1604.00
2018-06-07T04:06:47.724Z,1644.00
2018-06-07T04:07:47.748Z,1676.00
2018-06-07T04:08:47.768Z,1720.00
2018-06-07T04:09:47.790Z,1752.00
2018-06-07T04:10:47.812Z,1800.00
2018-06-07T04:11:47.835Z,1844.00
2018-06-07T04:12:47.855Z,1900.00
2018-06-07T04:13:47.879Z,1956.00
2018-06-07T04:14:47.900Z,2004.00
2018-06-07T04:15:47.922Z,2048.00
2018-06-07T04:16:47.943Z,2092.00
2018-06-07T04:17:47.967Z,2132.00
2018-06-07T04:18:47.986Z,2168.00
2018-06-07T04:19:48.009Z,2204.00
2018-06-07T04:20:48.032Z,2244.00
2018-06-07T04:21:48.053Z,2292.00
2018-06-07T04:22:48.076Z,2304.00
2018-06-07T04:23:48.097Z,2348.00
2018-06-07T04:24:48.119Z,2392.00
2018-06-07T04:25:48.142Z,2436.00
2018-06-07T04:26:48.163Z,2488.00
2018-06-07T04:27:48.189Z,2560.00
2018-06-07T04:28:48.208Z,2600.00
2018-06-07T04:29:48.229Z,2636.00
2018-06-07T04:30:48.252Z,2664.00
2018-06-07T04:31:48.275Z,2716.00
2018-06-07T04:32:48.295Z,2772.00
2018-06-07T04:33:48.317Z,2816.00
2018-06-07T04:34:48.341Z,2904.00
2018-06-07T04:35:48.362Z,3056.00
2018-06-07T04:36:48.390Z,3100.00
2018-06-07T04:37:48.409Z,3028.00
2018-06-07T04:38:48.429Z,3032.00
2018-06-07T04:39:48.451Z,3076.00
2018-06-07T04:40:48.472Z,3124.00
2018-06-07T04:41:48.494Z,3184.00
2018-06-07T04:42:48.517Z,3244.00
2018-06-07T04:43:48.555Z,3316.00
2018-06-07T04:44:48.560Z,3444.00
2018-06-07T04:45:48.583Z,3720.00
2018-06-07T04:46:48.605Z,4048.00
2018-06-07T04:47:48.628Z,4248.00
2018-06-07T04:48:48.649Z,4376.00
2018-06-07T04:49:48.671Z,4472.00
2018-06-07T04:50:48.695Z,4548.00
2018-06-07T04:51:48.716Z,4640.00
2018-06-07T04:52:48.737Z,4756.00
2018-06-07T04:53:48.762Z,4888.00
2018-06-07T04:54:48.783Z,4992.00
2018-06-07T04:55:48.806Z,5096.00
2018-06-07T04:56:48.827Z,5228.00
2018-06-07T04:57:48.849Z,5388.00
2018-06-07T04:58:48.871Z,5580.00
2018-06-07T04:59:48.895Z,5740.00
2018-06-07T05:00:48.916Z,5860.00
2018-06-07T05:01:48.939Z,6044.00
2018-06-07T05:02:48.961Z,6204.00
2018-06-07T05:03:48.983Z,6308.00
2018-06-07T05:04:49.006Z,6452.00
2018-06-07T05:05:49.029Z,6668.00
2018-06-07T05:06:49.102Z,6904.00
2018-06-07T05:07:49.074Z,7192.00
2018-06-07T05:08:49.095Z,7540.00
2018-06-07T05:09:49.119Z,7896.00
2018-06-07T05:10:49.144Z,8176.00
2018-06-07T05:11:49.165Z,8248.00
2018-06-07T05:12:49.188Z,8176.00
2018-06-07T05:13:49.209Z,7988.00
2018-06-07T05:14:49.233Z,7756.00
2018-06-07T05:15:49.255Z,7460.00
2018-06-07T05:16:49.278Z,7136.00
2018-06-07T05:17:49.301Z,6928.00
2018-06-07T05:18:49.325Z,6852.00
2018-06-07T05:19:49.346Z,6632.00
2018-06-07T05:20:49.371Z,6436.00
2018-06-07T05:21:49.392Z,6224.00
2018-06-07T05:22:49.416Z,5448.00
2018-06-07T05:23:49.440Z,5332.00
2018-06-07T05:24:49.530Z,5488.00
2018-06-07T05:25:49.484Z,5920.00
2018-06-07T05:26:49.508Z,6192.00
2018-06-07T05:27:49.532Z,6304.00
2018-06-07T05:28:49.556Z,6504.00
2018-06-07T05:29:49.577Z,6756.00
2018-06-07T05:30:49.609Z,8384.00
2018-06-07T05:31:49.623Z,9000.00
2018-06-07T05:32:49.646Z,9324.00
2018-06-07T05:33:49.668Z,9496.00
2018-06-07T05:34:49.693Z,9528.00
2018-06-07T05:35:49.716Z,9548.00
2018-06-07T05:36:49.739Z,9760.00
2018-06-07T05:37:49.761Z,9984.00
2018-06-07T05:38:49.829Z,10304.00
2018-06-07T05:39:49.809Z,10484.00
2018-06-07T05:40:49.830Z,11004.00
2018-06-07T05:41:49.855Z,11396.00
2018-06-07T05:42:49.881Z,11696.00
2018-06-07T05:43:49.901Z,12052.00
2018-06-07T05:44:49.927Z,12508.00
2018-06-07T05:45:49.951Z,12972.00
2018-06-07T05:46:49.974Z,13704.00
2018-06-07T05:47:49.996Z,14924.00
2018-06-07T05:48:50.018Z,16544.00
2018-06-07T05:49:50.043Z,17184.00
2018-06-07T05:50:50.067Z,17056.00
2018-06-07T05:51:50.096Z,17568.00
2018-06-07T05:52:50.113Z,18816.00
2018-06-07T05:53:50.137Z,20736.00
2018-06-07T05:54:50.161Z,22496.00
2018-06-07T05:55:50.227Z,25824.00
2018-06-07T05:56:50.207Z,28640.00
2018-06-07T05:57:50.231Z,32768.00
2018-06-07T05:58:50.256Z,38624.00
2018-06-07T05:59:50.297Z,41600.00
2018-06-07T06:00:50.304Z,39136.00
2018-06-07T06:01:50.328Z,33536.00
2018-06-07T06:02:50.360Z,30496.00
2018-06-07T06:03:50.394Z,28992.00
2018-06-07T06:04:50.402Z,27648.00
2018-06-07T06:05:50.426Z,26400.00
2018-06-07T06:06:50.451Z,26848.00
2018-06-07T06:07:50.475Z,26944.00
2018-06-07T06:08:50.502Z,25248.00
2018-06-07T06:09:50.545Z,23136.00
2018-06-07T06:10:50.549Z,24224.00
2018-06-07T06:11:50.574Z,24704.00
2018-06-07T06:12:50.597Z,23552.00
2018-06-07T06:13:50.624Z,21984.00
2018-06-07T06:14:50.649Z,20896.00
2018-06-07T06:15:50.673Z,21952.00
2018-06-07T06:16:50.698Z,21152.00
2018-06-07T06:17:50.722Z,21760.00
2018-06-07T06:18:50.745Z,20608.00
2018-06-07T06:19:50.770Z,19872.00
2018-06-07T06:20:50.796Z,11908.00
2018-06-07T06:21:50.821Z,18112.00
2018-06-07T06:22:50.846Z,20416.00
2018-06-07T06:23:50.871Z,22208.00
2018-06-07T06:24:50.895Z,21344.00
2018-06-07T06:25:50.919Z,20864.00
2018-06-07T06:26:50.945Z,20832.00
2018-06-07T06:27:51.012Z,21760.00
2018-06-07T06:28:50.994Z,21792.00
2018-06-07T06:29:51.019Z,21728.00
2018-06-07T06:30:51.044Z,20608.00
2018-06-07T06:31:51.071Z,20192.00
2018-06-07T06:32:51.094Z,19808.00
2018-06-07T06:33:51.120Z,19584.00
2018-06-07T06:34:51.146Z,15540.00
2018-06-07T06:35:51.172Z,20480.00
2018-06-07T06:36:51.197Z,21824.00
2018-06-07T06:37:51.221Z,23904.00
2018-06-07T06:38:51.247Z,25600.00
2018-06-07T06:39:51.273Z,23200.00
2018-06-07T06:40:51.300Z,21536.00
2018-06-07T06:41:51.326Z,22336.00
2018-06-07T06:42:51.350Z,23808.00
2018-06-07T06:43:51.376Z,24128.00
2018-06-07T06:44:51.402Z,24768.00
2018-06-07T06:45:51.427Z,27200.00
2018-06-07T06:46:51.454Z,26816.00
2018-06-07T06:47:51.482Z,25376.00
2018-06-07T06:48:51.507Z,25248.00
2018-06-07T06:49:51.534Z,25696.00
2018-06-07T06:50:51.560Z,27168.00
2018-06-07T06:51:51.586Z,28448.00
2018-06-07T06:52:51.613Z,29472.00
2018-06-07T06:53:51.642Z,31488.00
2018-06-07T06:54:51.666Z,35232.00
2018-06-07T06:55:51.694Z,38432.00
2018-06-07T06:56:51.721Z,39744.00
2018-06-07T06:57:51.747Z,41312.00
2018-06-07T06:58:51.774Z,41952.00
2018-06-07T06:59:51.801Z,41344.00
2018-06-07T07:00:51.829Z,40672.00
2018-06-07T07:01:51.857Z,39264.00
2018-06-07T07:02:51.885Z,37920.00
2018-06-07T07:03:51.913Z,37408.00
2018-06-07T07:04:51.941Z,34624.00
2018-06-07T07:05:51.968Z,32512.00
2018-06-07T07:06:51.995Z,30368.00
2018-06-07T07:07:52.023Z,28992.00
2018-06-07T07:08:52.050Z,30464.00
2018-06-07T07:12:09.720Z,43168.00
2018-06-07T07:12:36.168Z,42784.00
2018-06-07T07:13:36.197Z,38912.00
2018-06-07T07:14:36.225Z,41888.00
2018-06-07T07:15:36.253Z,46016.00
2018-06-07T07:16:36.282Z,48064.00
2018-06-07T07:17:36.311Z,49440.00
2018-06-07T07:18:36.339Z,49152.00
2018-06-07T07:19:36.368Z,39328.00
2018-06-07T07:20:36.397Z,47904.00
2018-06-07T07:21:36.426Z,52384.00
2018-06-07T07:22:36.454Z,51680.00
2018-06-07T07:23:36.485Z,50976.00
2018-06-07T07:24:36.514Z,48832.00
2018-06-07T07:25:36.545Z,54720.00
2018-06-07T07:26:36.571Z,54272.00
2018-06-07T07:27:36.602Z,51456.00
2018-06-07T07:28:36.630Z,35552.00
2018-06-07T07:29:36.660Z,21344.00
2018-06-07T07:30:36.689Z,52096.00
2018-06-07T07:31:36.718Z,36768.00
2018-06-07T07:32:36.748Z,54912.00
2018-06-07T07:33:36.777Z,52480.00
2018-06-07T07:34:36.861Z,48800.00
2018-06-07T07:35:36.835Z,54368.00
2018-06-07T07:36:36.866Z,58784.00
2018-06-07T07:37:36.894Z,59264.00
2018-06-07T07:38:36.923Z,57024.00
2018-06-07T07:39:36.952Z,53440.00
2018-06-07T07:40:36.983Z,24704.00
2018-06-07T07:41:37.013Z,26240.00
2018-06-07T07:42:37.042Z,21728.00
2018-06-07T07:43:37.071Z,45376.00
2018-06-07T07:44:37.102Z,48992.00
2018-06-07T07:45:37.132Z,48288.00
2018-06-07T07:46:37.161Z,40224.00
2018-06-07T07:47:37.193Z,37344.00
2018-06-07T07:48:37.221Z,26720.00
2018-06-07T07:49:37.255Z,32480.00
2018-06-07T07:50:37.280Z,35168.00
2018-06-07T07:51:37.310Z,34304.00
2018-06-07T07:52:37.344Z,34688.00
2018-06-07T07:53:37.371Z,33248.00
2018-06-07T07:54:37.399Z,30528.00
2018-06-07T07:55:37.429Z,36352.00
2018-06-07T07:56:37.459Z,37088.00
2018-06-07T07:57:37.491Z,42816.00
2018-06-07T07:58:37.518Z,47104.00
2018-06-07T07:59:37.548Z,48864.00
2018-06-07T08:00:37.578Z,40128.00
2018-06-07T08:01:37.609Z,35200.00
2018-06-07T08:02:37.637Z,32864.00
2018-06-07T08:03:37.668Z,36704.00
2018-06-07T08:04:37.702Z,40480.00
2018-06-07T08:05:37.776Z,44960.00
2018-06-07T08:06:37.756Z,47232.00
2018-06-07T08:07:37.786Z,47584.00
2018-06-07T08:08:37.817Z,50144.00
2018-06-07T08:09:37.852Z,51360.00
2018-06-07T08:10:37.874Z,53504.00
2018-06-07T08:11:37.905Z,46560.00
2018-06-07T08:12:37.936Z,51424.00
2018-06-07T08:13:37.966Z,52640.00
2018-06-07T08:14:37.994Z,54368.00
2018-06-07T08:15:38.026Z,60256.00
2018-06-07T08:16:38.055Z,60288.00
2018-06-07T08:17:38.086Z,58784.00
2018-06-07T08:18:38.114Z,58496.00
2018-06-07T08:19:38.146Z,60128.00
2018-06-07T08:20:38.176Z,61760.00
2018-06-07T08:21:38.207Z,60640.00
2018-06-07T08:22:38.235Z,61312.00
2018-06-07T08:23:38.267Z,60224.00
2018-06-07T08:24:38.298Z,60000.00
2018-06-07T08:25:38.331Z,61280.00
2018-06-07T08:26:38.359Z,62016.00
2018-06-07T08:27:38.391Z,60864.00
2018-06-07T08:28:38.422Z,59040.00
2018-06-07T08:29:38.452Z,59872.00
2018-06-07T08:30:38.483Z,60640.00
2018-06-07T08:31:38.514Z,60416.00
2018-06-07T08:32:38.545Z,60960.00
2018-06-07T08:33:38.578Z,62688.00
2018-06-07T08:34:38.614Z,62944.00
2018-06-07T08:35:38.640Z,62528.00
2018-06-07T08:36:38.671Z,63072.00
2018-06-07T08:37:38.703Z,63616.00
2018-06-07T08:38:38.733Z,63168.00
2018-06-07T08:39:38.785Z,62752.00
2018-06-07T08:40:38.797Z,64288.00
2018-06-07T08:41:38.829Z,65568.00
2018-06-07T08:42:38.860Z,66272.00
2018-06-07T08:43:38.893Z,67264.00
2018-06-07T08:44:38.953Z,65696.00
2018-06-07T08:45:38.957Z,67200.00
2018-06-07T08:46:38.988Z,67808.00
2018-06-07T08:47:39.020Z,68000.00
2018-06-07T08:48:39.056Z,68000.00
2018-06-07T08:49:39.084Z,68416.00
2018-06-07T08:50:39.116Z,69856.00
2018-06-07T08:51:39.149Z,70048.00
2018-06-07T08:52:39.181Z,68384.00
2018-06-07T08:53:39.214Z,66816.00
2018-06-07T08:54:39.245Z,67712.00
2018-06-07T08:55:39.277Z,69088.00
2018-06-07T08:56:39.311Z,69856.00
2018-06-07T08:57:39.342Z,69600.00
2018-06-07T08:58:39.375Z,68832.00
2018-06-07T08:59:39.407Z,67776.00
2018-06-07T09:00:39.440Z,68448.00
2018-06-07T09:01:39.473Z,68832.00
2018-06-07T09:02:39.527Z,69088.00
2018-06-07T09:03:39.544Z,70720.00
2018-06-07T09:04:39.570Z,71904.00
2018-06-07T09:05:39.602Z,72000.00
2018-06-07T09:06:39.634Z,71712.00
2018-06-07T09:07:39.667Z,71904.00
2018-06-07T09:08:39.704Z,71328.00
2018-06-07T09:09:39.733Z,68736.00
2018-06-07T09:10:39.764Z,67712.00
2018-06-07T09:11:39.798Z,67488.00
2018-06-07T09:12:39.830Z,71232.00
2018-06-07T09:13:39.864Z,72288.00
2018-06-07T09:14:39.894Z,71008.00
2018-06-07T09:15:39.931Z,69792.00
2018-06-07T09:16:39.961Z,68480.00
2018-06-07T09:17:40.014Z,69312.00
2018-06-07T09:18:40.028Z,69792.00
2018-06-07T09:19:40.057Z,68832.00
2018-06-07T09:20:40.090Z,70080.00
2018-06-07T09:21:40.123Z,71264.00
2018-06-07T09:22:40.157Z,70720.00
2018-06-07T09:23:40.187Z,69376.00
2018-06-07T09:24:40.223Z,69856.00
2018-06-07T09:25:40.253Z,69824.00
2018-06-07T09:26:40.285Z,70176.00
2018-06-07T09:27:40.319Z,68768.00
2018-06-07T09:28:40.366Z,68000.00
2018-06-07T09:29:40.382Z,68832.00
2018-06-07T09:30:40.414Z,69792.00
2018-06-07T09:31:40.450Z,69344.00
2018-06-07T09:32:40.480Z,70016.00
2018-06-07T09:33:40.512Z,71744.00
2018-06-07T09:34:40.544Z,70048.00
2018-06-07T09:35:40.577Z,69120.00
2018-06-07T09:36:40.609Z,68960.00
2018-06-07T09:37:40.643Z,68192.00
2018-06-07T09:38:40.676Z,66848.00
2018-06-07T09:39:40.710Z,65600.00
2018-06-07T09:40:40.742Z,67616.00
2018-06-07T09:41:40.775Z,67104.00
2018-06-07T09:42:40.806Z,66080.00
2018-06-07T09:43:40.842Z,67008.00
2018-06-07T09:44:40.872Z,66336.00
2018-06-07T09:45:40.906Z,66080.00
2018-06-07T09:46:40.938Z,66592.00
2018-06-07T09:47:40.971Z,65504.00
2018-06-07T09:48:41.004Z,66400.00
2018-06-07T09:49:41.038Z,65184.00
2018-06-07T09:50:41.069Z,65024.00
2018-06-07T09:51:41.103Z,64512.00
2018-06-07T09:52:41.187Z,64832.00
2018-06-07T09:53:41.170Z,64512.00
2018-06-07T09:54:41.205Z,64512.00
2018-06-07T09:55:41.235Z,64928.00
2018-06-07T09:56:41.270Z,64288.00
2018-06-07T09:57:41.305Z,64480.00
2018-06-07T09:58:41.335Z,64640.00
2018-06-07T09:59:41.368Z,64128.00
2018-06-07T10:00:41.415Z,62560.00
2018-06-07T10:01:41.434Z,62336.00
2018-06-07T10:02:41.467Z,62528.00
2018-06-07T10:03:41.562Z,64192.00
2018-06-07T10:04:41.533Z,64704.00
2018-06-07T10:05:41.566Z,63552.00
2018-06-07T10:06:41.600Z,63584.00
2018-06-07T10:07:41.632Z,64704.00
2018-06-07T10:08:41.666Z,63168.00
2018-06-07T10:09:41.700Z,62432.00
2018-06-07T10:10:41.734Z,63264.00
2018-06-07T10:11:41.765Z,61792.00
2018-06-07T10:12:41.798Z,58848.00
2018-06-07T10:13:41.833Z,59392.00
2018-06-07T10:14:41.866Z,63552.00
2018-06-07T10:15:41.898Z,65920.00
2018-06-07T10:16:41.933Z,64224.00
2018-06-07T10:17:41.969Z,61824.00
2018-06-07T10:18:41.998Z,61280.00
2018-06-07T10:19:42.033Z,61952.00
2018-06-07T10:20:42.066Z,61216.00
2018-06-07T10:21:42.106Z,60256.00
2018-06-07T10:22:42.131Z,59712.00
2018-06-07T10:23:42.165Z,59424.00
2018-06-07T10:24:42.199Z,60256.00
2018-06-07T10:25:42.232Z,61952.00
2018-06-07T10:26:42.264Z,62912.00
2018-06-07T10:27:42.298Z,60672.00
2018-06-07T10:28:42.332Z,59584.00
2018-06-07T10:29:42.365Z,60736.00
2018-06-07T10:30:42.398Z,59872.00
2018-06-07T10:31:42.432Z,58208.00
2018-06-07T10:32:42.467Z,58048.00
2018-06-07T10:33:42.500Z,59968.00
2018-06-07T10:34:42.532Z,58656.00
2018-06-07T10:35:42.565Z,56288.00
2018-06-07T10:36:42.601Z,58144.00
2018-06-07T10:37:42.634Z,61760.00
2018-06-07T10:38:42.666Z,61888.00
2018-06-07T10:39:42.747Z,60992.00
2018-06-07T10:40:42.764Z,60384.00
2018-06-07T10:41:42.766Z,59808.00
2018-06-07T10:42:42.800Z,60896.00
2018-06-07T10:43:42.834Z,59360.00
2018-06-07T10:44:42.868Z,55616.00
2018-06-07T10:45:42.901Z,56384.00
2018-06-07T10:46:42.934Z,56768.00
2018-06-07T10:47:42.968Z,58752.00
2018-06-07T10:48:43.001Z,59456.00
2018-06-07T10:49:43.034Z,58496.00
2018-06-07T10:50:43.067Z,53120.00
2018-06-07T10:51:43.105Z,47040.00
2018-06-07T10:52:43.133Z,41216.00
2018-06-07T10:53:43.167Z,34688.00
2018-06-07T10:54:43.200Z,33312.00
2018-06-07T10:55:43.234Z,33440.00
2018-06-07T10:56:43.269Z,34848.00
2018-06-07T10:57:43.300Z,38144.00
2018-06-07T10:58:43.333Z,43872.00
2018-06-07T10:59:43.366Z,48832.00
2018-06-07T11:00:43.402Z,47072.00
2018-06-07T11:01:43.434Z,42464.00
2018-06-07T11:02:43.466Z,38688.00
2018-06-07T11:03:43.502Z,36640.00
2018-06-07T11:04:43.534Z,35264.00
2018-06-07T11:05:43.569Z,34304.00
2018-06-07T11:06:43.601Z,32224.00
2018-06-07T11:07:43.635Z,31232.00
2018-06-07T11:08:43.670Z,31040.00
2018-06-07T11:09:43.705Z,30784.00
2018-06-07T11:10:43.735Z,30016.00
2018-06-07T11:11:43.768Z,29728.00
2018-06-07T11:12:43.803Z,29824.00
2018-06-07T11:13:43.837Z,29760.00
2018-06-07T11:14:43.870Z,28576.00
2018-06-07T11:15:43.903Z,27584.00
2018-06-07T11:16:43.939Z,27136.00
2018-06-07T11:17:43.970Z,26592.00
2018-06-07T11:18:44.002Z,26368.00
2018-06-07T11:19:44.037Z,26528.00
2018-06-07T11:20:44.072Z,25888.00
2018-06-07T11:21:44.104Z,24896.00
2018-06-07T11:22:44.136Z,24800.00
2018-06-07T11:23:45.961Z,24992.00
2018-06-07T11:24:44.206Z,24512.00
2018-06-07T11:25:44.237Z,24384.00
2018-06-07T11:26:44.271Z,24288.00
2018-06-07T11:30:27.559Z,23712.00
2018-06-07T11:30:28.406Z,23424.00
2018-06-07T11:31:28.485Z,24032.00
2018-06-07T11:32:28.471Z,23840.00
2018-06-07T11:33:28.505Z,24032.00
2018-06-07T11:34:28.540Z,24128.00
2018-06-07T11:35:28.572Z,24352.00
2018-06-07T11:36:28.606Z,23424.00
2018-06-07T11:37:28.639Z,23648.00
2018-06-07T11:38:28.674Z,23296.00
2018-06-07T11:39:28.708Z,22912.00
2018-06-07T11:40:28.740Z,22496.00
2018-06-07T11:41:28.773Z,22464.00
2018-06-07T11:42:28.807Z,21984.00
2018-06-07T11:43:28.844Z,21920.00
2018-06-07T11:44:28.875Z,21696.00
2018-06-07T11:45:28.913Z,21536.00
2018-06-07T11:46:28.942Z,21856.00
2018-06-07T11:47:28.974Z,22272.00
2018-06-07T11:48:29.007Z,22560.00
2018-06-07T11:49:29.049Z,22720.00
2018-06-07T11:50:29.074Z,22752.00
2018-06-07T11:51:29.110Z,22848.00
2018-06-07T11:52:29.195Z,23040.00
2018-06-07T11:53:29.175Z,23200.00
2018-06-07T11:54:29.209Z,23488.00
2018-06-07T11:55:29.242Z,23840.00
2018-06-07T11:56:29.297Z,23488.00
2018-06-07T11:57:29.309Z,23072.00
2018-06-07T11:58:29.345Z,23008.00
2018-06-07T11:59:29.377Z,23328.00
2018-06-07T12:00:29.408Z,22528.00
2018-06-07T12:01:29.441Z,23872.00
2018-06-07T12:02:29.476Z,22912.00
2018-06-07T12:03:29.508Z,24288.00
2018-06-07T12:04:29.541Z,24928.00
2018-06-07T12:05:29.574Z,25824.00
2018-06-07T12:06:29.609Z,24992.00
2018-06-07T12:07:29.641Z,20480.00
2018-06-07T12:08:29.674Z,17604.00
2018-06-07T12:09:29.708Z,22944.00
2018-06-07T12:10:29.744Z,16132.00
2018-06-07T12:11:29.774Z,15484.00
2018-06-07T12:12:29.858Z,16284.00
2018-06-07T12:13:29.846Z,14404.00
2018-06-07T12:14:29.873Z,14488.00
2018-06-07T12:15:29.905Z,14716.00